St. Louis Express — WDD3825 — position and weather

sailwx.info

Track history (hours):
 
Tides and Currents Weather Stations Pressure Air Temp Water Temp Dewpoint Dewpoint Depression Visibility Wind Speed Wind Dir Waves Ship Positions

St. Louis Express

Owner: Marine Transport Management, Inc (Nick Orfanidis), Jacksonville, FL. More information available from US FCC via Universal Licensing System.

Last reported at 2016-Dec-05 12:33 UTC. Time now 2016-Dec-05 12:36 UTC.
Position N 32°05' W 081°05'.

Type: Cargo ship. MMSI: 367136680.

Date/timePositionNaut miles runAvg speedWind from/ knotsBaromVisibWave heightAir tempDewpointWater temp
2016-Dec-05 12:33N 32°05' W 081°05'3 3.3
2016-Dec-05 11:32N 32°07' W 081°08'0 0.0
2016-Dec-05 10:32N 32°07' W 081°08'0 0.0
2016-Dec-05 09:32N 32°07' W 081°08'0 0.0
2016-Dec-05 08:26N 32°07' W 081°08'0 0.0
2016-Dec-05 07:32N 32°07' W 081°08'0 0.0
2016-Dec-05 06:32N 32°07' W 081°08'0 0.0
2016-Dec-05 05:32N 32°07' W 081°08'0 0.0
2016-Dec-05 03:32N 32°07' W 081°08'0 0.0
2016-Dec-05 02:32N 32°07' W 081°08'0 0.0
2016-Dec-05 01:32N 32°07' W 081°08'0 0.0
2016-Dec-05 00:32N 32°07' W 081°08'0 0.0
2016-Dec-04 23:20N 32°07' W 081°08'0 0.0
2016-Dec-04 22:32N 32°07' W 081°08'1 0.5
2016-Dec-04 21:33N 32°07' W 081°08'5 4.8
2016-Dec-04 20:33N 32°05' W 081°02'7 6.9
2016-Dec-04 19:33N 32°02' W 080°55'10 9.7
2016-Dec-04 18:33N 31°58' W 080°44'8 7.6
2016-Dec-04 17:33N 31°58' W 080°35'0 0.3
2016-Dec-04 16:33N 31°58' W 080°35'0 0.0
2016-Dec-04 15:33N 31°58' W 080°35'0 0.0
2016-Dec-04 14:33N 31°58' W 080°35'0 0.0
2016-Dec-04 13:33N 31°58' W 080°35'5 5.1
2016-Dec-04 12:33N 31°53' W 080°35'23919.0
2016-Dec-04 00:00N 28°00' W 079°36'5521.8 080 / 211019.510.8 22.017.228.0
2016-Dec-03 21:29N 27°06' W 079°45'2 2.3
2016-Dec-03 20:33N 27°04' W 079°45'2 2.3
2016-Dec-03 19:33N 27°02' W 079°45'2 2.2
2016-Dec-03 18:33N 26°59' W 079°44'3 3.0
2016-Dec-03 17:33N 26°56' W 079°44'2713.6
2016-Dec-03 15:33N 26°29' W 079°45'2222.3
2016-Dec-03 14:33N 26°07' W 079°49'2222.0
2016-Dec-03 13:33N 25°45' W 079°53'2222.5
2016-Dec-03 12:34N 25°23' W 079°57'1220.5
2016-Dec-03 12:00N 25°12' W 080°00'22618.8 080 / 271017.810.8 25.022.029.0
2016-Dec-03 00:00N 24°36' W 084°06'7719.2 080 / 151017.510.8 24.521.529.0
2016-Dec-02 20:00N 25°06' W 085°24'15819.7 090 / 161015.710.8 29.021.629.0
2016-Dec-02 12:00N 26°06' W 088°06'22018.3 090 / 181017.510.8 22.518.627.0
2016-Dec-02 00:00N 27°30' W 091°54'209 7.8 120 / 131017.110.8
2016-Nov-30 21:10N 29°41' W 094°60'0 0.0
2016-Nov-30 14:23N 29°41' W 094°60'0 0.0
2016-Nov-30 13:34N 29°41' W 094°60'0 0.0
2016-Nov-30 12:31N 29°41' W 094°60'0 0.0
2016-Nov-30 11:30N 29°41' W 094°60'0 0.0
2016-Nov-30 10:34N 29°41' W 094°60'0 0.0
2016-Nov-30 09:33N 29°41' W 094°60'0 0.0
2016-Nov-30 08:34N 29°41' W 094°60'0 0.0
2016-Nov-30 07:34N 29°41' W 094°60'0 0.0
2016-Nov-30 06:34N 29°41' W 094°60'0 0.0
2016-Nov-30 05:33N 29°41' W 094°60'0 0.0
2016-Nov-30 04:34N 29°41' W 094°60'0 0.0
2016-Nov-30 03:33N 29°41' W 094°60'0 0.0
2016-Nov-30 02:30N 29°41' W 094°60'0 0.1
2016-Nov-30 01:33N 29°41' W 095°00'5 5.5
2016-Nov-30 00:33N 29°36' W 094°57'1413.9
2016-Nov-29 23:32N 29°24' W 094°49'19617.0
2016-Nov-29 12:00N 27°30' W 091°48'25221.0 190 / 201005.910.8 25.022.027.0
2016-Nov-29 00:00N 26°00' W 087°24'12621.0 160 / 131010.210.8 25.521.027.0
2016-Nov-28 18:00N 25°06' W 085°18'11519.1 110 / 161013.010.8 25.020.528.0
2016-Nov-28 12:00N 24°30' W 083°18'17818.7 080 / 201014.910.8 23.019.927.0
2016-Nov-28 02:29N 25°11' W 080°07'1718.8
2016-Nov-28 01:34N 25°28' W 080°01'1918.7
2016-Nov-28 00:33N 25°46' W 080°00'1717.4
2016-Nov-27 23:33N 26°03' W 080°04'3 3.1
2016-Nov-27 22:33N 26°04' W 080°07'0 0.0
2016-Nov-27 21:33N 26°04' W 080°07'0 0.0
2016-Nov-27 20:33N 26°04' W 080°07'0 0.0
2016-Nov-27 19:32N 26°04' W 080°07'0 0.0
2016-Nov-27 18:33N 26°04' W 080°07'0 0.0
2016-Nov-27 17:32N 26°04' W 080°07'0 0.0
2016-Nov-27 16:33N 26°04' W 080°07'0 0.0
2016-Nov-27 15:32N 26°04' W 080°07'0 0.0
2016-Nov-27 14:33N 26°04' W 080°07'0 0.0
2016-Nov-27 13:27N 26°04' W 080°07'0 0.0
2016-Nov-27 12:33N 26°04' W 080°07'0 0.0
2016-Nov-27 11:33N 26°04' W 080°07'0 0.0
2016-Nov-27 10:33N 26°04' W 080°07'1 0.8
2016-Nov-27 09:33N 26°05' W 080°07'7 6.6
2016-Nov-27 08:33N 26°08' W 080°00'1515.0
2016-Nov-27 07:33N 26°23' W 079°58'1717.4
2016-Nov-27 06:34N 26°40' W 079°56'1717.4
2016-Nov-27 05:33N 26°57' W 079°58'9917.8
2016-Nov-27 00:00N 28°36' W 080°06'25318.3 360 / 151019.610.8 20.014.928.0
2016-Nov-26 10:09N 32°49' W 079°55'  
Track history (hours):
 
Tides and Currents Weather Stations Pressure Air Temp Water Temp Dewpoint Dewpoint Depression Visibility Wind Speed Wind Dir Waves Ship Positions

St. Louis Express

Owner: Marine Transport Management, Inc (Nick Orfanidis), Jacksonville, FL. More information available from US FCC via Universal Licensing System.

Last reported at 2016-Dec-05 12:33 UTC. Time now 2016-Dec-05 12:36 UTC.
Position N 32°05' W 081°05'.

Type: Cargo ship. MMSI: 367136680.

Date/timePositionNaut miles runAvg speedWind from/ knotsBaromVisibWave heightAir tempDewpointWater temp
2016-Dec-05 12:33N 32°05' W 081°05'3 3.3
2016-Dec-05 11:32N 32°07' W 081°08'0 0.0
2016-Dec-05 10:32N 32°07' W 081°08'0 0.0
2016-Dec-05 09:32N 32°07' W 081°08'0 0.0
2016-Dec-05 08:26N 32°07' W 081°08'0 0.0
2016-Dec-05 07:32N 32°07' W 081°08'0 0.0
2016-Dec-05 06:32N 32°07' W 081°08'0 0.0
2016-Dec-05 05:32N 32°07' W 081°08'0 0.0
2016-Dec-05 03:32N 32°07' W 081°08'0 0.0
2016-Dec-05 02:32N 32°07' W 081°08'0 0.0
2016-Dec-05 01:32N 32°07' W 081°08'0 0.0
2016-Dec-05 00:32N 32°07' W 081°08'0 0.0
2016-Dec-04 23:20N 32°07' W 081°08'0 0.0
2016-Dec-04 22:32N 32°07' W 081°08'1 0.5
2016-Dec-04 21:33N 32°07' W 081°08'5 4.8
2016-Dec-04 20:33N 32°05' W 081°02'7 6.9
2016-Dec-04 19:33N 32°02' W 080°55'10 9.7
2016-Dec-04 18:33N 31°58' W 080°44'8 7.6
2016-Dec-04 17:33N 31°58' W 080°35'0 0.3
2016-Dec-04 16:33N 31°58' W 080°35'0 0.0
2016-Dec-04 15:33N 31°58' W 080°35'0 0.0
2016-Dec-04 14:33N 31°58' W 080°35'0 0.0
2016-Dec-04 13:33N 31°58' W 080°35'5 5.1
2016-Dec-04 12:33N 31°53' W 080°35'23919.0
2016-Dec-04 00:00N 28°00' W 079°36'5521.8 080 / 211019.510.8 22.017.228.0
2016-Dec-03 21:29N 27°06' W 079°45'2 2.3
2016-Dec-03 20:33N 27°04' W 079°45'2 2.3
2016-Dec-03 19:33N 27°02' W 079°45'2 2.2
2016-Dec-03 18:33N 26°59' W 079°44'3 3.0
2016-Dec-03 17:33N 26°56' W 079°44'2713.6
2016-Dec-03 15:33N 26°29' W 079°45'2222.3
2016-Dec-03 14:33N 26°07' W 079°49'2222.0
2016-Dec-03 13:33N 25°45' W 079°53'2222.5
2016-Dec-03 12:34N 25°23' W 079°57'1220.5
2016-Dec-03 12:00N 25°12' W 080°00'22618.8 080 / 271017.810.8 25.022.029.0
2016-Dec-03 00:00N 24°36' W 084°06'7719.2 080 / 151017.510.8 24.521.529.0
2016-Dec-02 20:00N 25°06' W 085°24'15819.7 090 / 161015.710.8 29.021.629.0
2016-Dec-02 12:00N 26°06' W 088°06'22018.3 090 / 181017.510.8 22.518.627.0
2016-Dec-02 00:00N 27°30' W 091°54'209 7.8 120 / 131017.110.8
2016-Nov-30 21:10N 29°41' W 094°60'0 0.0
2016-Nov-30 14:23N 29°41' W 094°60'0 0.0
2016-Nov-30 13:34N 29°41' W 094°60'0 0.0
2016-Nov-30 12:31N 29°41' W 094°60'0 0.0
2016-Nov-30 11:30N 29°41' W 094°60'0 0.0
2016-Nov-30 10:34N 29°41' W 094°60'0 0.0
2016-Nov-30 09:33N 29°41' W 094°60'0 0.0
2016-Nov-30 08:34N 29°41' W 094°60'0 0.0
2016-Nov-30 07:34N 29°41' W 094°60'0 0.0
2016-Nov-30 06:34N 29°41' W 094°60'0 0.0
2016-Nov-30 05:33N 29°41' W 094°60'0 0.0
2016-Nov-30 04:34N 29°41' W 094°60'0 0.0
2016-Nov-30 03:33N 29°41' W 094°60'0 0.0
2016-Nov-30 02:30N 29°41' W 094°60'0 0.1
2016-Nov-30 01:33N 29°41' W 095°00'5 5.5
2016-Nov-30 00:33N 29°36' W 094°57'1413.9
2016-Nov-29 23:32N 29°24' W 094°49'19617.0
2016-Nov-29 12:00N 27°30' W 091°48'25221.0 190 / 201005.910.8 25.022.027.0
2016-Nov-29 00:00N 26°00' W 087°24'12621.0 160 / 131010.210.8 25.521.027.0
2016-Nov-28 18:00N 25°06' W 085°18'11519.1 110 / 161013.010.8 25.020.528.0
2016-Nov-28 12:00N 24°30' W 083°18'17818.7 080 / 201014.910.8 23.019.927.0
2016-Nov-28 02:29N 25°11' W 080°07'1718.8
2016-Nov-28 01:34N 25°28' W 080°01'1918.7
2016-Nov-28 00:33N 25°46' W 080°00'1717.4
2016-Nov-27 23:33N 26°03' W 080°04'3 3.1
2016-Nov-27 22:33N 26°04' W 080°07'0 0.0
2016-Nov-27 21:33N 26°04' W 080°07'0 0.0
2016-Nov-27 20:33N 26°04' W 080°07'0 0.0
2016-Nov-27 19:32N 26°04' W 080°07'0 0.0
2016-Nov-27 18:33N 26°04' W 080°07'0 0.0
2016-Nov-27 17:32N 26°04' W 080°07'0 0.0
2016-Nov-27 16:33N 26°04' W 080°07'0 0.0
2016-Nov-27 15:32N 26°04' W 080°07'0 0.0
2016-Nov-27 14:33N 26°04' W 080°07'0 0.0
2016-Nov-27 13:27N 26°04' W 080°07'0 0.0
2016-Nov-27 12:33N 26°04' W 080°07'0 0.0
2016-Nov-27 11:33N 26°04' W 080°07'0 0.0
2016-Nov-27 10:33N 26°04' W 080°07'1 0.8
2016-Nov-27 09:33N 26°05' W 080°07'7 6.6
2016-Nov-27 08:33N 26°08' W 080°00'1515.0
2016-Nov-27 07:33N 26°23' W 079°58'1717.4
2016-Nov-27 06:34N 26°40' W 079°56'1717.4
2016-Nov-27 05:33N 26°57' W 079°58'9917.8
2016-Nov-27 00:00N 28°36' W 080°06'25318.3 360 / 151019.610.8 20.014.928.0
2016-Nov-26 10:09N 32°49' W 079°55'  

Dump ship's entire track history